Time;durP1;ratioP1;P1;durP2;ratioP2;P2;SDS_P1;SDS_P2;PMS_P1;PMS_P2;Temp;Humidity;BMP_temperature;BMP_pressure;BME280_temperature;BME280_humidity;BME280_pressure;Samples;Min_cycle;Max_cycle;Signal;HPM_P1;HPM_P2
2023/03/12 00:01:54;;;;;;;4.53;4.17;;;4.20;39.60;;;;;;20641;6871;117822;-76
2023/03/12 00:04:20;;;;;;;5.87;4.17;;;4.10;39.60;;;;;;20640;6871;117299;-78
2023/03/12 00:06:45;;;;;;;5.72;4.65;;;3.90;40.00;;;;;;20431;6871;309199;-79
2023/03/12 00:09:11;;;;;;;6.73;4.43;;;3.90;40.80;;;;;;20639;6871;117465;-76
2023/03/12 00:11:37;;;;;;;5.17;3.70;;;3.70;40.80;;;;;;20627;6872;117945;-76
2023/03/12 00:14:03;;;;;;;5.90;4.60;;;3.70;40.80;;;;;;20446;6872;285564;-76
2023/03/12 00:16:29;;;;;;;5.30;4.40;;;4.20;40.20;;;;;;20429;6872;309032;-76
2023/03/12 00:18:55;;;;;;;4.90;4.18;;;4.50;39.80;;;;;;20429;6872;338384;-78
2023/03/12 00:21:21;;;;;;;5.73;4.13;;;4.40;39.70;;;;;;20640;6872;117220;-76
2023/03/12 00:23:47;;;;;;;5.47;4.03;;;4.30;39.50;;;;;;20621;6872;118008;-76
2023/03/12 00:26:13;;;;;;;6.00;4.70;;;4.00;40.20;;;;;;20405;6872;316148;-77
2023/03/12 00:28:39;;;;;;;5.97;4.73;;;4.00;40.20;;;;;;20637;6872;117760;-76
2023/03/12 00:31:11;;;;;;;6.47;5.65;;;4.00;40.00;;;;;;20428;6872;311143;-76
2023/03/12 00:33:37;;;;;;;7.37;5.65;;;4.10;40.00;;;;;;20394;6872;279953;-76
2023/03/12 00:36:02;;;;;;;5.97;4.70;;;4.40;39.70;;;;;;20644;6872;120563;-76
2023/03/12 00:38:28;;;;;;;4.47;4.13;;;4.30;39.60;;;;;;20640;6872;118643;-76
2023/03/12 00:40:53;;;;;;;5.00;4.50;;;4.00;40.00;;;;;;20642;6872;118786;-76
2023/03/12 00:43:19;;;;;;;4.62;3.95;;;3.80;40.30;;;;;;20639;6872;117924;-76
2023/03/12 00:45:45;;;;;;;6.28;4.78;;;3.60;40.60;;;;;;20412;6872;309300;-76
2023/03/12 00:48:10;;;;;;;5.55;4.40;;;3.70;41.30;;;;;;20644;6872;117292;-78
2023/03/12 00:50:36;;;;;;;4.60;4.20;;;3.70;41.00;;;;;;20626;6872;117239;-76
2023/03/12 00:53:01;;;;;;;6.65;4.65;;;3.50;41.00;;;;;;20434;6872;309625;-76
2023/03/12 00:55:28;;;;;;;4.95;4.45;;;3.70;41.40;;;;;;20625;6872;117773;-77
2023/03/12 00:57:54;;;;;;;6.03;4.83;;;3.70;41.10;;;;;;20430;6872;309704;-77
2023/03/12 01:00:20;;;;;;;4.97;4.28;;;3.80;41.20;;;;;;20424;6872;284219;-77
2023/03/12 01:02:45;;;;;;;5.17;4.67;;;4.20;40.50;;;;;;20640;6872;117410;-76
2023/03/12 01:05:11;;;;;;;4.63;3.90;;;4.10;40.30;;;;;;20631;6872;117274;-76
2023/03/12 01:07:36;;;;;;;6.53;4.93;;;3.80;40.60;;;;;;20416;6872;299596;-77
2023/03/12 01:10:02;;;;;;;5.83;4.00;;;3.90;41.10;;;;;;20644;6872;117370;-76
2023/03/12 01:12:27;;;;;;;4.20;3.80;;;3.90;40.90;;;;;;20641;6870;117287;-76
2023/03/12 01:14:53;;;;;;;5.20;4.70;;;3.70;41.00;;;;;;20430;6871;327220;-76
2023/03/12 01:17:19;;;;;;;5.20;4.70;;;3.90;41.40;;;;;;20430;6871;279996;-76
2023/03/12 01:19:44;;;;;;;5.47;4.67;;;4.20;40.70;;;;;;20622;6871;117568;-76
2023/03/12 01:22:10;;;;;;;4.87;4.37;;;4.20;40.50;;;;;;20434;6872;293982;-76
2023/03/12 01:24:37;;;;;;;5.43;4.47;;;4.30;41.20;;;;;;20642;6872;120578;-76
2023/03/12 01:27:03;;;;;;;7.80;4.23;;;4.20;40.50;;;;;;20647;6872;118749;-77
2023/03/12 01:29:28;;;;;;;6.68;5.62;;;4.10;40.80;;;;;;20407;6872;309457;-76
2023/03/12 01:31:56;;;;;;;5.82;5.20;;;4.20;40.90;;;;;;20435;6872;310094;-77
2023/03/12 01:34:21;;;;;;;6.27;4.90;;;4.50;40.50;;;;;;20642;6872;117275;-76
2023/03/12 01:36:47;;;;;;;4.67;4.33;;;4.50;40.30;;;;;;20642;6872;117797;-78
2023/03/12 01:39:12;;;;;;;4.80;4.40;;;4.20;40.60;;;;;;20640;6872;117374;-76
2023/03/12 01:41:38;;;;;;;4.70;4.30;;;4.00;40.80;;;;;;20618;6872;117961;-76
2023/03/12 01:44:04;;;;;;;5.73;5.00;;;4.00;41.50;;;;;;20423;6872;289909;-77
2023/03/12 01:46:33;;;;;;;6.50;5.40;;;4.00;41.50;;;;;;20418;6872;285382;-77
2023/03/12 01:49:12;;;;;;;5.30;4.53;;;4.40;40.90;;;;;;20618;6872;118743;-78
2023/03/12 01:52:05;;;;;;;5.70;5.10;;;4.40;40.60;;;;;;20400;6872;297576;-76
2023/03/12 01:54:36;;;;;;;5.90;5.00;;;4.50;40.70;;;;;;20635;6872;123737;-76
2023/03/12 01:57:02;;;;;;;5.45;4.95;;;4.40;40.60;;;;;;20408;6872;311522;-76
2023/03/12 01:59:29;;;;;;;5.60;5.10;;;4.50;40.70;;;;;;20384;6872;283315;-80
2023/03/12 02:01:54;;;;;;;5.67;5.07;;;4.80;40.50;;;;;;20383;6872;309712;-77
2023/03/12 02:04:20;;;;;;;5.82;4.70;;;5.00;40.60;;;;;;20633;6872;117313;-81
2023/03/12 02:06:47;;;;;;;4.20;3.90;;;4.80;39.80;;;;;;20629;6872;117411;-76
2023/03/12 02:09:11;;;;;;;6.43;4.40;;;4.40;40.30;;;;;;20405;6872;316482;-77
2023/03/12 02:11:36;;;;;;;3.83;3.53;;;4.50;41.00;;;;;;20621;6872;118288;-76
2023/03/12 02:14:02;;;;;;;4.53;3.67;;;4.40;40.90;;;;;;20637;6872;122751;-76
2023/03/12 02:16:28;;;;;;;4.93;4.28;;;4.20;41.10;;;;;;20420;6872;339681;-76
2023/03/12 02:18:53;;;;;;;5.93;4.40;;;4.20;41.20;;;;;;20627;6872;123345;-76
2023/03/12 02:21:19;;;;;;;3.80;3.60;;;4.00;41.20;;;;;;20630;6872;117670;-76
2023/03/12 02:24:02;;;;;;;7.33;4.10;;;4.00;41.20;;;;;;20604;6870;117819;-76
2023/03/12 02:26:27;;;;;;;4.70;4.30;;;3.80;41.40;;;;;;20623;6871;117205;-76
2023/03/12 02:28:53;;;;;;;4.63;4.20;;;3.70;41.70;;;;;;20630;6871;117865;-77
2023/03/12 02:31:18;;;;;;;6.12;4.20;;;3.60;41.90;;;;;;20630;6871;117315;-76
2023/03/12 02:33:44;;;;;;;5.15;4.65;;;3.50;42.20;;;;;;20406;6872;283416;-77
2023/03/12 02:36:10;;;;;;;6.60;5.10;;;3.70;42.70;;;;;;20427;6872;338387;-76
2023/03/12 02:38:38;;;;;;;5.93;5.00;;;4.10;42.20;;;;;;20436;6872;313437;-77
2023/03/12 02:41:13;;;;;;;5.20;4.70;;;4.50;41.70;;;;;;20422;6872;296480;-76
2023/03/12 02:43:39;;;;;;;6.53;4.67;;;4.70;41.30;;;;;;20315;6872;120159;-77
2023/03/12 02:46:04;;;;;;;5.30;4.73;;;4.60;41.10;;;;;;20638;6872;117980;-76
2023/03/12 02:48:30;;;;;;;5.80;5.12;;;4.30;41.40;;;;;;20414;6872;312045;-76
2023/03/12 02:50:55;;;;;;;5.40;4.90;;;4.40;41.90;;;;;;20631;6872;121663;-76
2023/03/12 02:53:21;;;;;;;5.33;4.83;;;4.30;41.70;;;;;;20628;6872;117302;-76
2023/03/12 02:55:47;;;;;;;6.15;5.53;;;4.20;42.10;;;;;;20399;6872;343715;-77
2023/03/12 02:58:12;;;;;;;6.07;5.00;;;4.30;42.10;;;;;;20631;6872;119522;-76
2023/03/12 03:00:38;;;;;;;6.07;5.57;;;4.30;41.90;;;;;;20418;6872;340006;-77
2023/03/12 03:03:03;;;;;;;7.17;5.67;;;4.40;41.80;;;;;;20425;6872;309308;-76
2023/03/12 03:05:29;;;;;;;6.03;5.53;;;4.70;41.50;;;;;;20390;6872;309718;-77
2023/03/12 03:07:54;;;;;;;6.20;5.30;;;4.90;41.30;;;;;;20635;6872;120676;-77
2023/03/12 03:10:20;;;;;;;5.43;5.05;;;4.80;41.20;;;;;;20628;6872;120797;-77
2023/03/12 03:12:45;;;;;;;5.30;4.80;;;4.50;41.60;;;;;;20520;6872;68175;-77
2023/03/12 03:15:12;;;;;;;6.40;4.90;;;4.20;41.80;;;;;;20617;6876;117617;-76
2023/03/12 03:17:38;;;;;;;5.10;4.70;;;4.00;42.10;;;;;;20585;6876;124457;-77
2023/03/12 03:20:13;;;;;;;5.90;5.35;;;3.90;42.40;;;;;;20412;6876;294602;-77
2023/03/12 03:22:30;;;;;;;6.10;5.13;;;4.00;42.90;;;;;;20543;6876;117805;-78
2023/03/12 03:24:58;;;;;;;5.27;4.77;;;4.10;42.70;;;;;;20623;6876;117409;-77
2023/03/12 03:27:23;;;;;;;8.27;4.97;;;3.90;42.70;;;;;;20612;6876;118155;-78
2023/03/12 03:29:49;;;;;;;7.12;5.30;;;3.80;42.80;;;;;;20255;6924;291443;-77
2023/03/12 03:32:14;;;;;;;5.30;4.90;;;4.00;43.00;;;;;;20523;6876;118489;-77
2023/03/12 03:34:40;;;;;;;5.72;5.20;;;4.00;42.60;;;;;;20393;6875;309639;-78
2023/03/12 03:37:05;;;;;;;6.30;4.90;;;4.20;42.80;;;;;;20404;6876;308762;-77
2023/03/12 03:39:31;;;;;;;5.80;5.33;;;4.50;42.10;;;;;;20371;6876;309988;-77
2023/03/12 03:41:56;;;;;;;6.07;5.13;;;4.80;41.50;;;;;;20419;6876;319512;-77
2023/03/12 03:44:22;;;;;;;6.00;5.17;;;5.00;41.00;;;;;;20392;6876;303397;-78
2023/03/12 03:46:48;;;;;;;5.57;5.18;;;5.10;41.00;;;;;;20614;6876;117288;-77
2023/03/12 03:49:15;;;;;;;6.00;5.40;;;4.90;41.00;;;;;;20395;6876;308779;-77
2023/03/12 03:51:43;;;;;;;5.47;4.90;;;4.90;41.50;;;;;;20582;6876;118754;-77
2023/03/12 03:54:05;;;;;;;5.23;4.73;;;4.70;41.40;;;;;;20585;6876;117771;-76
2023/03/12 03:56:31;;;;;;;5.60;5.10;;;4.40;42.40;;;;;;20403;6876;284314;-77
2023/03/12 03:58:56;;;;;;;5.70;5.15;;;4.50;42.20;;;;;;20399;6876;319418;-76
2023/03/12 04:01:22;;;;;;;5.40;4.97;;;4.80;42.20;;;;;;20393;6876;308276;-76
2023/03/12 04:03:47;;;;;;;6.60;5.30;;;5.10;42.00;;;;;;20597;6876;118826;-77
2023/03/12 04:06:13;;;;;;;5.23;4.70;;;5.00;41.70;;;;;;20605;6876;117972;-77
2023/03/12 04:08:41;;;;;;;5.53;5.03;;;4.80;41.90;;;;;;20403;6876;327608;-78
2023/03/12 04:11:13;;;;;;;4.80;4.43;;;4.80;41.90;;;;;;20614;6876;117369;-76
2023/03/12 04:13:38;;;;;;;4.60;4.20;;;4.70;41.90;;;;;;20589;6876;117513;-78
2023/03/12 04:16:05;;;;;;;6.00;4.90;;;4.60;42.60;;;;;;20419;6876;280564;-78
2023/03/12 04:18:31;;;;;;;5.68;4.53;;;4.60;42.60;;;;;;20392;6876;341945;-78
2023/03/12 04:20:56;;;;;;;5.35;4.85;;;5.00;42.40;;;;;;20414;6876;279558;-79
2023/03/12 04:23:21;;;;;;;4.90;4.50;;;5.30;41.60;;;;;;20625;6876;117397;-77
2023/03/12 04:25:47;;;;;;;5.30;4.80;;;5.20;41.40;;;;;;20394;6876;283931;-78
2023/03/12 04:28:12;;;;;;;4.97;4.40;;;5.30;42.00;;;;;;20611;6876;118482;-77
2023/03/12 04:30:38;;;;;;;5.07;4.50;;;5.20;41.90;;;;;;20619;6872;118981;-77
2023/03/12 04:33:04;;;;;;;5.32;4.55;;;5.00;42.20;;;;;;20406;6872;337777;-77
2023/03/12 04:35:29;;;;;;;5.33;4.90;;;5.10;42.10;;;;;;20379;6876;295570;-78
2023/03/12 04:37:55;;;;;;;5.85;5.35;;;5.40;42.30;;;;;;20403;6876;311758;-78
2023/03/12 04:40:20;;;;;;;6.10;5.50;;;5.60;42.10;;;;;;20396;6876;309261;-78
2023/03/12 04:42:46;;;;;;;4.70;4.30;;;5.70;41.90;;;;;;20611;6876;117735;-77
2023/03/12 04:45:11;;;;;;;4.23;3.93;;;5.50;41.90;;;;;;20608;6875;117619;-78
2023/03/12 04:47:37;;;;;;;5.50;5.00;;;5.20;42.40;;;;;;20378;6876;313299;-77
2023/03/12 04:50:03;;;;;;;5.80;5.30;;;5.30;42.50;;;;;;20403;6876;280411;-78
2023/03/12 04:52:29;;;;;;;5.63;5.23;;;5.50;42.40;;;;;;20399;6876;309732;-77
2023/03/12 04:54:55;;;;;;;4.87;4.47;;;5.70;42.30;;;;;;20610;6876;120977;-78
2023/03/12 04:57:20;;;;;;;4.93;4.53;;;5.60;42.10;;;;;;20402;6876;280036;-79
2023/03/12 04:59:46;;;;;;;5.15;4.70;;;5.50;42.00;;;;;;20382;6876;287741;-78
2023/03/12 05:02:12;;;;;;;6.50;4.60;;;5.90;41.10;;;;;;20411;6876;279487;-78
2023/03/12 05:04:38;;;;;;;5.07;4.37;;;5.90;40.70;;;;;;20629;6876;117474;-78
2023/03/12 05:07:04;;;;;;;4.90;4.40;;;5.70;40.70;;;;;;20407;6876;309616;-78
2023/03/12 05:09:31;;;;;;;4.63;4.17;;;5.70;40.50;;;;;;20603;6876;118558;-78
2023/03/12 05:11:57;;;;;;;4.37;3.97;;;5.60;40.70;;;;;;20623;6876;117515;-78
2023/03/12 05:14:23;;;;;;;5.70;3.80;;;5.40;41.20;;;;;;20616;6876;118212;-78
2023/03/12 05:16:50;;;;;;;4.30;3.90;;;5.20;41.60;;;;;;20413;6876;280376;-78
2023/03/12 05:19:15;;;;;;;4.63;4.00;;;5.30;41.10;;;;;;20402;6876;314192;-78
2023/03/12 05:21:42;;;;;;;4.70;4.20;;;6.00;41.00;;;;;;20396;6876;309445;-78
2023/03/12 05:24:07;;;;;;;4.73;4.20;;;6.00;41.00;;;;;;20614;6876;117561;-77
2023/03/12 05:26:33;;;;;;;4.70;4.30;;;5.90;40.90;;;;;;20412;6876;279947;-78
2023/03/12 05:28:58;;;;;;;5.05;4.50;;;5.90;42.10;;;;;;20409;6876;310037;-77
2023/03/12 05:31:24;;;;;;;4.90;4.00;;;6.10;42.10;;;;;;20588;6876;117953;-78
2023/03/12 05:33:49;;;;;;;4.27;3.97;;;6.00;41.70;;;;;;20630;6876;118790;-78
2023/03/12 05:36:15;;;;;;;4.67;4.30;;;5.60;41.80;;;;;;20403;6876;303693;-77
2023/03/12 05:38:41;;;;;;;5.37;4.40;;;5.70;42.30;;;;;;20408;6876;280356;-78
2023/03/12 05:41:07;;;;;;;5.13;3.90;;;5.80;42.10;;;;;;20619;6876;116357;-77
2023/03/12 05:43:33;;;;;;;5.00;4.50;;;5.80;42.10;;;;;;20362;6876;309936;-77
2023/03/12 05:46:02;;;;;;;5.17;4.67;;;5.80;43.10;;;;;;20403;6876;303812;-77
2023/03/12 05:48:27;;;;;;;5.30;4.80;;;6.10;43.20;;;;;;20397;6876;285247;-79
2023/03/12 05:50:53;;;;;;;7.43;6.83;;;6.10;43.20;;;;;;20612;6876;117276;-77
2023/03/12 05:53:18;;;;;;;8.32;7.62;;;6.00;43.20;;;;;;20401;6876;309636;-79
2023/03/12 05:55:44;;;;;;;4.97;4.53;;;5.90;44.80;;;;;;20394;6876;280953;-77
2023/03/12 05:58:11;;;;;;;5.28;4.20;;;6.10;44.30;;;;;;20404;6875;309999;-77
2023/03/12 06:00:37;;;;;;;4.50;4.10;;;6.10;43.00;;;;;;20618;6876;118145;-77
2023/03/12 06:03:05;;;;;;;4.73;4.30;;;6.10;42.90;;;;;;20588;6876;121274;-77
2023/03/12 06:05:32;;;;;;;4.67;4.13;;;5.40;44.00;;;;;;20577;6876;117531;-78
2023/03/12 06:07:57;;;;;;;5.15;4.65;;;5.40;43.60;;;;;;20381;6876;283184;-77
2023/03/12 06:10:23;;;;;;;4.25;3.95;;;5.40;44.00;;;;;;20589;6876;117533;-78
2023/03/12 06:12:48;;;;;;;4.90;4.40;;;5.40;43.90;;;;;;20602;6876;117469;-77
2023/03/12 06:15:15;;;;;;;5.18;4.68;;;5.10;44.40;;;;;;20435;6876;307329;-77
2023/03/12 06:17:41;;;;;;;5.40;4.93;;;5.30;45.10;;;;;;20388;6876;279579;-78
2023/03/12 06:20:07;;;;;;;5.57;5.17;;;5.60;45.40;;;;;;20409;6876;306028;-78
2023/03/12 06:22:32;;;;;;;4.90;4.50;;;5.90;45.60;;;;;;20619;6876;121000;-77
2023/03/12 06:24:58;;;;;;;6.00;5.40;;;5.80;45.30;;;;;;20407;6876;310006;-79
2023/03/12 06:27:24;;;;;;;5.95;5.05;;;5.70;46.40;;;;;;20590;6876;127945;-79
2023/03/12 06:29:52;;;;;;;5.00;4.60;;;5.70;46.40;;;;;;20583;6884;118941;-78
2023/03/12 06:32:17;;;;;;;7.47;6.97;;;5.50;46.50;;;;;;20379;6884;280478;-78
2023/03/12 06:34:43;;;;;;;6.40;5.80;;;5.60;47.80;;;;;;20386;6884;344074;-75
2023/03/12 06:37:10;;;;;;;6.50;5.80;;;5.80;47.50;;;;;;20613;6876;117746;-76
2023/03/12 06:39:36;;;;;;;4.93;4.43;;;5.80;47.40;;;;;;20608;6876;117468;-75
2023/03/12 06:42:01;;;;;;;6.47;5.87;;;5.60;47.50;;;;;;20420;6876;285635;-78
2023/03/12 06:44:27;;;;;;;6.05;5.45;;;5.70;49.00;;;;;;20416;6876;310082;-75
2023/03/12 06:46:53;;;;;;;6.10;5.60;;;5.90;48.80;;;;;;20421;6876;279603;-74
2023/03/12 06:49:18;;;;;;;6.03;5.13;;;6.10;48.30;;;;;;20620;6876;119871;-77
2023/03/12 06:51:44;;;;;;;5.20;4.70;;;5.90;47.90;;;;;;20607;6876;117794;-76
2023/03/12 06:54:10;;;;;;;6.80;4.93;;;5.40;48.50;;;;;;20618;6876;117462;-74
2023/03/12 06:56:37;;;;;;;6.07;5.57;;;5.40;48.70;;;;;;20620;6876;117272;-73
2023/03/12 06:59:02;;;;;;;6.40;5.90;;;5.20;48.70;;;;;;20414;6876;309977;-74
2023/03/12 07:01:27;;;;;;;6.97;5.57;;;5.30;50.40;;;;;;20606;6876;120883;-75
2023/03/12 07:03:53;;;;;;;6.87;6.18;;;5.40;50.10;;;;;;20426;6876;309785;-74
2023/03/12 07:06:19;;;;;;;7.87;6.25;;;5.60;50.80;;;;;;20413;6876;309663;-75
2023/03/12 07:08:44;;;;;;;7.47;6.28;;;5.90;50.30;;;;;;20404;6875;311773;-76
2023/03/12 07:11:11;;;;;;;6.28;5.60;;;6.00;49.40;;;;;;20604;6876;117380;-76
2023/03/12 07:13:36;;;;;;;5.20;4.80;;;6.00;49.40;;;;;;20589;6876;117357;-76
2023/03/12 07:16:03;;;;;;;5.93;5.43;;;5.70;49.50;;;;;;20611;6876;117575;-77
2023/03/12 07:18:29;;;;;;;5.67;5.17;;;5.50;49.80;;;;;;20624;6876;117359;-76
2023/03/12 07:20:56;;;;;;;6.10;5.27;;;5.30;50.00;;;;;;20647;6876;116361;-76
2023/03/12 07:23:23;;;;;;;6.60;6.00;;;5.20;50.10;;;;;;20430;6876;296017;-76
2023/03/12 07:25:48;;;;;;;6.75;6.12;;;5.30;51.00;;;;;;20412;6876;278648;-77
2023/03/12 07:28:14;;;;;;;7.00;6.30;;;5.60;50.90;;;;;;20446;6876;337896;-78
2023/03/12 07:30:41;;;;;;;6.83;5.67;;;5.90;50.60;;;;;;20417;6876;299795;-78
2023/03/12 07:33:10;;;;;;;8.07;5.80;;;6.10;50.30;;;;;;20409;6876;304943;-78
2023/03/12 07:35:40;;;;;;;6.27;5.67;;;6.40;50.00;;;;;;20591;6876;117705;-78
2023/03/12 07:38:05;;;;;;;12.00;10.80;;;6.20;49.70;;;;;;20413;6876;308559;-76
2023/03/12 07:40:33;;;;;;;8.07;7.30;;;6.10;50.30;;;;;;20605;6876;118104;-77
2023/03/12 07:42:58;;;;;;;7.30;6.68;;;6.10;50.40;;;;;;20414;6876;313334;-76
2023/03/12 07:45:24;;;;;;;8.27;7.47;;;6.20;51.00;;;;;;20389;6876;307692;-79
2023/03/12 07:47:50;;;;;;;10.83;9.93;;;6.40;50.70;;;;;;20603;6876;117944;-77
2023/03/12 07:50:16;;;;;;;8.75;7.80;;;6.30;50.20;;;;;;20397;6876;340498;-77
2023/03/12 07:52:41;;;;;;;7.55;6.70;;;6.30;50.80;;;;;;20404;6876;313236;-77
2023/03/12 07:55:07;;;;;;;5.70;5.27;;;6.50;50.70;;;;;;20614;6876;118263;-77
2023/03/12 07:57:33;;;;;;;7.87;7.07;;;6.50;50.50;;;;;;20387;6876;314302;-78
2023/03/12 07:59:59;;;;;;;7.23;5.20;;;6.50;50.50;;;;;;20621;6876;118322;-77
2023/03/12 08:02:25;;;;;;;7.53;5.90;;;6.40;50.20;;;;;;20414;6876;297885;-77
2023/03/12 08:04:50;;;;;;;14.27;12.70;;;6.50;50.90;;;;;;20400;6876;310130;-77
2023/03/12 08:07:16;;;;;;;16.90;14.50;;;6.70;50.50;;;;;;20625;6876;117766;-77
2023/03/12 08:09:42;;;;;;;10.77;9.90;;;6.40;50.50;;;;;;20581;6876;119728;-78
2023/03/12 08:12:08;;;;;;;6.17;5.17;;;6.30;50.00;;;;;;20626;6876;117752;-77
2023/03/12 08:14:33;;;;;;;32.88;26.10;;;6.20;50.60;;;;;;20625;6876;118693;-77
2023/03/12 08:16:59;;;;;;;17.00;13.03;;;6.10;51.00;;;;;;20615;6876;120357;-74
2023/03/12 08:19:25;;;;;;;16.53;14.80;;;6.00;51.20;;;;;;20376;6876;279618;-80
2023/03/12 08:21:52;;;;;;;18.67;16.77;;;6.30;52.20;;;;;;20415;6875;342218;-79
2023/03/12 08:24:16;;;;;;;16.63;14.93;;;6.70;51.80;;;;;;20412;6876;303968;-79
2023/03/12 08:26:41;;;;;;;6.53;6.03;;;7.20;50.70;;;;;;20625;6876;118129;-79
2023/03/12 08:29:07;;;;;;;10.27;9.27;;;7.20;50.10;;;;;;20411;6876;279070;-78
2023/03/12 08:31:32;;;;;;;9.50;8.60;;;7.40;49.90;;;;;;20389;6876;283072;-80
2023/03/12 08:33:58;;;;;;;8.00;7.40;;;7.70;50.00;;;;;;20414;6876;309116;-80
2023/03/12 08:36:24;;;;;;;5.70;5.30;;;7.90;49.40;;;;;;20623;6876;116467;-81
2023/03/12 08:38:49;;;;;;;5.73;5.13;;;7.80;49.10;;;;;;20398;6876;333845;-79
2023/03/12 08:41:15;;;;;;;5.57;5.07;;;7.90;49.20;;;;;;20410;6876;318234;-79
2023/03/12 08:43:40;;;;;;;5.80;5.30;;;8.10;49.10;;;;;;20413;6876;282528;-80
2023/03/12 08:46:06;;;;;;;4.87;4.47;;;8.30;48.80;;;;;;20635;6876;114213;-79
2023/03/12 08:48:32;;;;;;;5.77;5.13;;;8.20;48.70;;;;;;20634;6876;117452;-78
2023/03/12 08:50:57;;;;;;;5.70;5.30;;;8.00;49.10;;;;;;20422;6876;309141;-78
2023/03/12 08:53:23;;;;;;;6.53;5.93;;;8.00;49.60;;;;;;20423;6876;280373;-75
2023/03/12 08:55:49;;;;;;;24.42;20.10;;;8.30;49.80;;;;;;20402;6870;278488;-77
2023/03/12 08:58:14;;;;;;;25.57;19.87;;;8.50;49.60;;;;;;20637;6867;117798;-78
2023/03/12 09:00:40;;;;;;;6.15;5.65;;;8.40;49.30;;;;;;20632;6873;117774;-78
2023/03/12 09:03:07;;;;;;;5.40;4.90;;;8.20;49.50;;;;;;20598;6876;119065;-79
2023/03/12 09:05:32;;;;;;;6.20;5.70;;;7.90;49.70;;;;;;20353;6884;280538;-77
2023/03/12 09:07:58;;;;;;;6.27;5.80;;;8.00;50.70;;;;;;20400;6881;341803;-77
2023/03/12 09:10:23;;;;;;;8.53;7.70;;;8.40;50.30;;;;;;20415;6878;279325;-77
2023/03/12 09:12:49;;;;;;;14.90;13.60;;;8.90;50.40;;;;;;20386;6884;314139;-79
2023/03/12 09:15:15;;;;;;;11.73;10.77;;;8.80;50.30;;;;;;20586;6884;117858;-78
2023/03/12 09:17:41;;;;;;;6.10;5.50;;;8.80;50.10;;;;;;20610;6876;118826;-79
2023/03/12 09:20:13;;;;;;;6.83;6.23;;;8.60;50.30;;;;;;20636;6876;118277;-80
2023/03/12 09:22:38;;;;;;;17.27;15.77;;;8.50;50.70;;;;;;20411;6876;340809;-80
2023/03/12 09:25:04;;;;;;;8.83;7.90;;;8.70;52.30;;;;;;20632;6876;118371;-81
2023/03/12 09:27:34;;;;;;;6.47;5.90;;;8.80;51.80;;;;;;20609;6876;118622;-77
2023/03/12 09:30:00;;;;;;;7.80;7.20;;;8.70;51.90;;;;;;20400;6876;309640;-77
2023/03/12 09:32:26;;;;;;;7.12;6.53;;;8.90;52.90;;;;;;20415;6875;313466;-78
2023/03/12 09:34:51;;;;;;;8.87;8.07;;;9.30;52.50;;;;;;20608;6876;118358;-75
2023/03/12 09:37:18;;;;;;;8.77;8.07;;;9.10;51.80;;;;;;20625;6876;118488;-77
2023/03/12 09:39:43;;;;;;;8.00;7.50;;;9.10;51.80;;;;;;20603;6876;117414;-76
2023/03/12 09:42:09;;;;;;;6.97;6.37;;;9.00;52.30;;;;;;20417;6876;280838;-75
2023/03/12 09:44:35;;;;;;;8.00;7.40;;;9.20;53.80;;;;;;20382;6876;285748;-75
2023/03/12 09:47:16;;;;;;;5.50;5.00;;;9.60;54.00;;;;;;20624;6876;117722;-76
2023/03/12 09:49:42;;;;;;;6.07;5.47;;;9.70;53.20;;;;;;20573;6886;117983;-78
2023/03/12 09:52:24;;;;;;;5.23;4.83;;;9.70;53.30;;;;;;20600;6882;119024;-76
2023/03/12 09:55:10;;;;;;;6.28;5.68;;;9.60;53.40;;;;;;20378;6882;339519;-78
2023/03/12 09:57:36;;;;;;;5.03;4.67;;;9.90;54.40;;;;;;20597;6873;120694;-78
2023/03/12 10:00:06;;;;;;;5.30;4.93;;;10.00;52.50;;;;;;20595;6884;117940;-77
2023/03/12 10:02:48;;;;;;;6.27;5.77;;;10.00;52.50;;;;;;20586;6884;117630;-78
2023/03/12 10:05:17;;;;;;;5.37;4.97;;;10.00;52.70;;;;;;20609;6884;117532;-78
2023/03/12 10:07:52;;;;;;;5.57;5.07;;;10.10;52.80;;;;;;20570;6881;150667;-78
2023/03/12 10:10:27;;;;;;;6.20;5.80;;;10.10;52.90;;;;;;20374;6881;309693;-78
2023/03/12 10:13:13;;;;;;;5.17;4.70;;;10.40;53.70;;;;;;20590;6881;118200;-78
2023/03/12 10:15:42;;;;;;;5.73;5.33;;;10.90;52.90;;;;;;20372;6881;310082;-77
2023/03/12 10:18:27;;;;;;;5.57;5.17;;;10.90;53.50;;;;;;20608;6881;117758;-78
2023/03/12 10:21:00;;;;;;;4.80;4.40;;;11.00;52.00;;;;;;20407;6881;287207;-78
2023/03/12 10:23:49;;;;;;;5.83;5.33;;;11.20;52.30;;;;;;20596;6881;130346;-76
2023/03/12 10:26:21;;;;;;;4.47;4.07;;;11.20;51.40;;;;;;20611;6881;117332;-74
2023/03/12 10:28:48;;;;;;;4.90;4.60;;;11.20;51.40;;;;;;20380;6881;335482;-78
2023/03/12 10:31:17;;;;;;;5.73;5.03;;;11.30;52.40;;;;;;20644;6869;121362;-77
2023/03/12 10:33:56;;;;;;;5.17;4.77;;;11.40;51.80;;;;;;20612;6869;124143;-74
2023/03/12 10:36:26;;;;;;;4.35;4.10;;;11.30;51.90;;;;;;20408;6867;338827;-75
2023/03/12 10:38:57;;;;;;;3.90;3.60;;;11.50;52.70;;;;;;20427;6867;280458;-76
2023/03/12 10:44:56;;;;;;;3.67;3.37;;;12.20;51.80;;;;;;20616;6869;121173;-75
2023/03/12 10:47:38;;;;;;;3.53;3.23;;;12.10;51.10;;;;;;20649;6870;117398;-75
2023/03/12 10:50:13;;;;;;;3.83;3.50;;;11.90;51.30;;;;;;20644;6869;118425;-78
2023/03/12 10:52:39;;;;;;;4.87;4.00;;;11.80;51.80;;;;;;20633;6869;117521;-78
2023/03/12 10:55:06;;;;;;;4.10;3.80;;;11.80;51.90;;;;;;20386;6869;303875;-82
2023/03/12 10:57:39;;;;;;;4.20;3.80;;;12.00;52.40;;;;;;20350;6868;309150;-79
2023/03/12 11:00:07;;;;;;;3.83;3.53;;;12.70;51.60;;;;;;20418;6868;321265;-79
2023/03/12 11:02:42;;;;;;;4.40;3.87;;;12.70;51.50;;;;;;20427;6869;317625;-81
2023/03/12 11:05:24;;;;;;;3.80;3.50;;;13.00;51.30;;;;;;20642;6869;117443;-75
2023/03/12 11:07:50;;;;;;;3.47;2.87;;;13.00;51.00;;;;;;20271;6869;117498;-78
2023/03/12 11:10:26;;;;;;;2.93;2.67;;;12.80;51.00;;;;;;20642;6869;117453;-79
2023/03/12 11:12:52;;;;;;;2.83;2.50;;;12.70;51.30;;;;;;20347;6869;313193;-75
2023/03/12 11:15:41;;;;;;;4.33;2.20;;;12.90;51.90;;;;;;20601;6869;117457;-78
2023/03/12 11:18:33;;;;;;;3.20;1.70;;;12.90;51.20;;;;;;20617;6869;117923;-77
2023/03/12 11:21:08;;;;;;;2.43;1.53;;;12.70;50.90;;;;;;20648;6869;117356;-79
2023/03/12 11:23:34;;;;;;;2.73;1.47;;;12.60;50.80;;;;;;20575;6867;117971;-77
2023/03/12 11:26:00;;;;;;;3.08;1.80;;;12.40;50.80;;;;;;20425;6867;308667;-76
2023/03/12 11:28:35;;;;;;;3.65;1.58;;;12.60;51.40;;;;;;20637;6867;117969;-77
2023/03/12 11:31:01;;;;;;;2.63;1.40;;;12.70;51.30;;;;;;20654;6867;117648;-75
2023/03/12 11:33:27;;;;;;;2.50;1.70;;;12.70;50.80;;;;;;20405;6869;285484;-76
2023/03/12 11:36:14;;;;;;;2.10;1.50;;;12.90;51.30;;;;;;20641;6869;117946;-76
2023/03/12 11:38:41;;;;;;;3.07;1.87;;;13.00;50.30;;;;;;20404;6869;309648;-76
2023/03/12 11:41:13;;;;;;;3.17;1.60;;;13.20;50.90;;;;;;20632;6869;117508;-78
2023/03/12 11:44:05;;;;;;;2.50;1.50;;;13.20;50.30;;;;;;20597;6869;117961;-77
2023/03/12 11:46:54;;;;;;;3.90;1.97;;;13.10;49.70;;;;;;20605;6867;120685;-75
2023/03/12 11:49:32;;;;;;;3.83;1.43;;;12.90;49.80;;;;;;20637;6869;118597;-73
2023/03/12 11:52:12;;;;;;;4.57;2.05;;;12.80;49.70;;;;;;20414;6869;341575;-75
2023/03/12 11:55:08;;;;;;;2.73;1.23;;;13.10;51.60;;;;;;20585;6867;121284;-74
2023/03/12 11:57:47;;;;;;;2.73;1.63;;;13.40;51.10;;;;;;20409;6868;280055;-75
2023/03/12 12:00:16;;;;;;;3.13;1.53;;;13.80;50.70;;;;;;20631;6867;117471;-75
2023/03/12 12:02:45;;;;;;;2.90;1.60;;;14.10;50.40;;;;;;20422;6867;309107;-75
2023/03/12 12:05:23;;;;;;;3.20;2.00;;;14.30;48.40;;;;;;20442;6867;281726;-74
2023/03/12 12:07:55;;;;;;;3.40;2.00;;;14.50;47.90;;;;;;19827;6884;310632;-76
2023/03/12 12:10:41;;;;;;;4.97;1.83;;;14.70;46.90;;;;;;20316;6873;117681;-77
2023/03/12 12:13:10;;;;;;;2.85;1.90;;;14.60;46.60;;;;;;20375;6882;313808;-73
2023/03/12 12:15:52;;;;;;;3.13;1.40;;;14.50;47.30;;;;;;20597;6873;118848;-73
2023/03/12 12:18:53;;;;;;;2.42;1.62;;;14.40;47.00;;;;;;20430;6873;325234;-78
2023/03/12 12:21:52;;;;;;;3.63;1.60;;;14.50;46.70;;;;;;20619;6873;117397;-77
2023/03/12 12:24:39;;;;;;;2.10;1.40;;;14.40;47.00;;;;;;20638;6873;68125;-78
2023/03/12 12:27:27;;;;;;;2.23;1.30;;;14.10;47.10;;;;;;20612;6873;117400;-77
2023/03/12 12:30:03;;;;;;;3.20;1.70;;;13.90;47.10;;;;;;20403;6873;308667;-80
2023/03/12 12:33:00;;;;;;;1.90;1.10;;;14.10;47.10;;;;;;20645;6873;118311;-81
2023/03/12 12:35:28;;;;;;;4.23;1.57;;;14.10;47.10;;;;;;20371;6876;118851;-83
2023/03/12 12:38:04;;;;;;;2.97;1.40;;;13.80;46.70;;;;;;20599;6876;118024;-79
2023/03/12 12:40:31;;;;;;;4.80;1.80;;;13.60;46.90;;;;;;20590;6876;124001;-80
2023/03/12 12:43:09;;;;;;;2.78;1.80;;;13.50;47.80;;;;;;20402;6876;315179;-79
2023/03/12 12:45:35;;;;;;;2.90;1.90;;;13.80;49.20;;;;;;20386;6876;312235;-81
2023/03/12 12:48:00;;;;;;;3.03;1.70;;;14.30;48.40;;;;;;20408;6876;312095;-80
2023/03/12 12:50:26;;;;;;;4.10;2.05;;;14.70;46.90;;;;;;20420;6876;279626;-83
2023/03/12 12:52:52;;;;;;;3.42;2.22;;;15.00;46.00;;;;;;20623;6876;69131;-80